MAU228 FIMP-FMEE
Flight info
| Callsign | MAU228 |
|---|---|
| Flight time | 0h 32m |
| Altitude | 20000 |
| Route | SOBAT2A SOBAT SOBAT2R |
| Aircraft | A359/H-SDE2E3GHIJ3J4J5LM1ORWXY/LB1D1 |
Departure
| Time | 2026-04-23 16:15 |
|---|---|
| Airport | Sir Seewoosagur Ramgoolam International Airport (FIMP) |
Arrival
| Time | 2026-04-23 16:47 |
|---|---|
| Airport | Roland Garros Airport (FMEE) |
| Time | Latitude | Longitude | Altitude | Speed | Heading |
|---|---|---|---|---|---|
| 2026-04-23 15:49 | -20.43260 | 57.67957 | 199 ft | 0 kts | 237° |
| 2026-04-23 16:04 | -20.43259 | 57.67959 | 193 ft | 2 kts | 237° |
| 2026-04-23 16:04 | -20.43245 | 57.67982 | 208 ft | 4 kts | 237° |
| 2026-04-23 16:05 | -20.43235 | 57.67998 | 208 ft | 4 kts | 237° |
| 2026-04-23 16:05 | -20.43220 | 57.68026 | 205 ft | 4 kts | 269° |
| 2026-04-23 16:05 | -20.43228 | 57.68050 | 208 ft | 4 kts | 317° |
| 2026-04-23 16:05 | -20.43249 | 57.68067 | 208 ft | 4 kts | 331° |
| 2026-04-23 16:06 | -20.43266 | 57.68076 | 208 ft | 0 kts | 335° |
| 2026-04-23 16:10 | -20.43239 | 57.68062 | 200 ft | 9 kts | 335° |
| 2026-04-23 16:10 | -20.43165 | 57.68005 | 208 ft | 15 kts | 313° |
| 2026-04-23 16:10 | -20.43091 | 57.67910 | 207 ft | 18 kts | 302° |
| 2026-04-23 16:10 | -20.43028 | 57.67782 | 207 ft | 21 kts | 297° |
| 2026-04-23 16:11 | -20.42952 | 57.67649 | 207 ft | 18 kts | 327° |
| 2026-04-23 16:11 | -20.42851 | 57.67589 | 205 ft | 17 kts | 328° |
| 2026-04-23 16:11 | -20.42750 | 57.67509 | 208 ft | 19 kts | 321° |
| 2026-04-23 16:11 | -20.42631 | 57.67455 | 207 ft | 18 kts | 341° |
| 2026-04-23 16:12 | -20.42547 | 57.67367 | 212 ft | 16 kts | 293° |
| 2026-04-23 16:12 | -20.42495 | 57.67255 | 214 ft | 17 kts | 296° |
| 2026-04-23 16:12 | -20.42440 | 57.67143 | 220 ft | 17 kts | 296° |
| 2026-04-23 16:12 | -20.42435 | 57.67035 | 220 ft | 15 kts | 268° |
| 2026-04-23 16:13 | -20.42409 | 57.66925 | 223 ft | 14 kts | 300° |
| 2026-04-23 16:13 | -20.42349 | 57.66946 | 221 ft | 4 kts | 97° |
| 2026-04-23 16:13 | -20.42361 | 57.66971 | 217 ft | 0 kts | 120° |
| 2026-04-23 16:14 | -20.42363 | 57.66973 | 223 ft | 2 kts | 120° |
| 2026-04-23 16:14 | -20.42375 | 57.67004 | 220 ft | 13 kts | 113° |
| 2026-04-23 16:14 | -20.42531 | 57.67334 | 212 ft | 90 kts | 117° |
| 2026-04-23 16:14 | -20.42929 | 57.68156 | 207 ft | 156 kts | 117° |
| 2026-04-23 16:15 | -20.43419 | 57.69174 | 1020 ft | 140 kts | 115° |
| 2026-04-23 16:15 | -20.43833 | 57.70036 | 2006 ft | 130 kts | 117° |
| 2026-04-23 16:15 | -20.44426 | 57.70823 | 2308 ft | 150 kts | 138° |
| 2026-04-23 16:15 | -20.45479 | 57.71259 | 2541 ft | 181 kts | 170° |
| 2026-04-23 16:16 | -20.46806 | 57.70886 | 2686 ft | 216 kts | 212° |
| 2026-04-23 16:16 | -20.47985 | 57.69783 | 2957 ft | 240 kts | 220° |
| 2026-04-23 16:16 | -20.49237 | 57.68474 | 3284 ft | 260 kts | 220° |
| 2026-04-23 16:16 | -20.50572 | 57.67110 | 3773 ft | 269 kts | 220° |
| 2026-04-23 16:17 | -20.51950 | 57.65726 | 4368 ft | 275 kts | 220° |
| 2026-04-23 16:17 | -20.53361 | 57.64321 | 5014 ft | 279 kts | 220° |
| 2026-04-23 16:17 | -20.54795 | 57.62901 | 5660 ft | 282 kts | 220° |
| 2026-04-23 16:17 | -20.56249 | 57.61466 | 6255 ft | 287 kts | 220° |
| 2026-04-23 16:18 | -20.57690 | 57.60047 | 6859 ft | 289 kts | 220° |
| 2026-04-23 16:18 | -20.59176 | 57.58583 | 7456 ft | 293 kts | 220° |
| 2026-04-23 16:18 | -20.60682 | 57.57101 | 8033 ft | 296 kts | 220° |
| 2026-04-23 16:18 | -20.62201 | 57.55600 | 8671 ft | 298 kts | 221° |
| 2026-04-23 16:19 | -20.63515 | 57.53881 | 9253 ft | 304 kts | 240° |
| 2026-04-23 16:19 | -20.64059 | 57.51707 | 9818 ft | 308 kts | 270° |
| 2026-04-23 16:19 | -20.63765 | 57.49440 | 10301 ft | 313 kts | 284° |
| 2026-04-23 16:19 | -20.63262 | 57.47123 | 10555 ft | 327 kts | 284° |
| 2026-04-23 16:20 | -20.62736 | 57.44707 | 10786 ft | 341 kts | 284° |
| 2026-04-23 16:20 | -20.62202 | 57.42185 | 11009 ft | 355 kts | 283° |
| 2026-04-23 16:20 | -20.61946 | 57.39558 | 11287 ft | 364 kts | 268° |
| 2026-04-23 16:20 | -20.62140 | 57.36824 | 11583 ft | 373 kts | 264° |
| 2026-04-23 16:21 | -20.62406 | 57.34060 | 12080 ft | 375 kts | 264° |
| 2026-04-23 16:21 | -20.62670 | 57.31273 | 12436 ft | 381 kts | 264° |
| 2026-04-23 16:21 | -20.62932 | 57.28440 | 12841 ft | 385 kts | 264° |
| 2026-04-23 16:21 | -20.63193 | 57.25581 | 13284 ft | 386 kts | 264° |
| 2026-04-23 16:22 | -20.63452 | 57.22727 | 13817 ft | 386 kts | 264° |
| 2026-04-23 16:22 | -20.63708 | 57.19882 | 14274 ft | 387 kts | 264° |
| 2026-04-23 16:22 | -20.63966 | 57.17008 | 14591 ft | 392 kts | 264° |
| 2026-04-23 16:22 | -20.64228 | 57.14083 | 14926 ft | 395 kts | 264° |
| 2026-04-23 16:23 | -20.64489 | 57.11169 | 15423 ft | 394 kts | 264° |
| 2026-04-23 16:23 | -20.64746 | 57.08292 | 15890 ft | 394 kts | 265° |
| 2026-04-23 16:23 | -20.65006 | 57.05365 | 16209 ft | 398 kts | 265° |
| 2026-04-23 16:23 | -20.65270 | 57.02398 | 16496 ft | 404 kts | 265° |
| 2026-04-23 16:24 | -20.65534 | 56.99417 | 16985 ft | 403 kts | 265° |
| 2026-04-23 16:24 | -20.65797 | 56.96444 | 17494 ft | 401 kts | 265° |
| 2026-04-23 16:24 | -20.66060 | 56.93467 | 17821 ft | 405 kts | 265° |
| 2026-04-23 16:24 | -20.66327 | 56.90450 | 18166 ft | 409 kts | 265° |
| 2026-04-23 16:25 | -20.66595 | 56.87424 | 18520 ft | 410 kts | 265° |
| 2026-04-23 16:25 | -20.66860 | 56.84391 | 18924 ft | 409 kts | 265° |
| 2026-04-23 16:25 | -20.67125 | 56.81359 | 19275 ft | 412 kts | 265° |
| 2026-04-23 16:25 | -20.67388 | 56.78340 | 19561 ft | 415 kts | 265° |
| 2026-04-23 16:26 | -20.67655 | 56.75273 | 19858 ft | 416 kts | 265° |
| 2026-04-23 16:26 | -20.67924 | 56.72177 | 19986 ft | 420 kts | 265° |
| 2026-04-23 16:26 | -20.68194 | 56.69067 | 20004 ft | 422 kts | 265° |
| 2026-04-23 16:26 | -20.68466 | 56.65939 | 20004 ft | 424 kts | 266° |
| 2026-04-23 16:27 | -20.68737 | 56.62794 | 20007 ft | 424 kts | 265° |
| 2026-04-23 16:27 | -20.69007 | 56.59662 | 20007 ft | 424 kts | 265° |
| 2026-04-23 16:27 | -20.69278 | 56.56527 | 20009 ft | 423 kts | 265° |
| 2026-04-23 16:27 | -20.69547 | 56.53394 | 20008 ft | 424 kts | 265° |
| 2026-04-23 16:28 | -20.69816 | 56.50255 | 20007 ft | 425 kts | 265° |
| 2026-04-23 16:28 | -20.70082 | 56.47142 | 20007 ft | 424 kts | 265° |
| 2026-04-23 16:28 | -20.70351 | 56.43994 | 20010 ft | 423 kts | 265° |
| 2026-04-23 16:28 | -20.70619 | 56.40854 | 20011 ft | 424 kts | 265° |
| 2026-04-23 16:29 | -20.70885 | 56.37720 | 20009 ft | 424 kts | 265° |
| 2026-04-23 16:29 | -20.71152 | 56.34581 | 20009 ft | 424 kts | 265° |
| 2026-04-23 16:29 | -20.71418 | 56.31443 | 19967 ft | 423 kts | 265° |
| 2026-04-23 16:29 | -20.71685 | 56.28262 | 19751 ft | 437 kts | 265° |
| 2026-04-23 16:30 | -20.71805 | 56.25028 | 19526 ft | 430 kts | 271° |
| 2026-04-23 16:30 | -20.71746 | 56.21880 | 19153 ft | 420 kts | 272° |
| 2026-04-23 16:30 | -20.71666 | 56.18799 | 18540 ft | 419 kts | 271° |
| 2026-04-23 16:30 | -20.71587 | 56.15681 | 17844 ft | 417 kts | 271° |
| 2026-04-23 16:31 | -20.71510 | 56.12591 | 17196 ft | 415 kts | 271° |
| 2026-04-23 16:31 | -20.71435 | 56.09518 | 16559 ft | 412 kts | 271° |
| 2026-04-23 16:31 | -20.71360 | 56.06473 | 15930 ft | 409 kts | 271° |
| 2026-04-23 16:31 | -20.71286 | 56.03455 | 15293 ft | 406 kts | 271° |
| 2026-04-23 16:32 | -20.71212 | 56.00452 | 14681 ft | 403 kts | 271° |
| 2026-04-23 16:32 | -20.71138 | 55.97461 | 14056 ft | 401 kts | 271° |
| 2026-04-23 16:32 | -20.71063 | 55.94478 | 13385 ft | 398 kts | 271° |
| 2026-04-23 16:32 | -20.70990 | 55.91568 | 12751 ft | 395 kts | 271° |
| 2026-04-23 16:33 | -20.70916 | 55.88652 | 12121 ft | 390 kts | 271° |
| 2026-04-23 16:33 | -20.70843 | 55.85774 | 11512 ft | 386 kts | 271° |
| 2026-04-23 16:33 | -20.70770 | 55.82937 | 11078 ft | 377 kts | 271° |
| 2026-04-23 16:33 | -20.70700 | 55.80202 | 10958 ft | 360 kts | 271° |
| 2026-04-23 16:34 | -20.70632 | 55.77616 | 10857 ft | 343 kts | 271° |
| 2026-04-23 16:34 | -20.70567 | 55.75116 | 10738 ft | 328 kts | 271° |
| 2026-04-23 16:34 | -20.70505 | 55.72726 | 10584 ft | 315 kts | 271° |
| 2026-04-23 16:34 | -20.70444 | 55.70439 | 10452 ft | 304 kts | 271° |
| 2026-04-23 16:35 | -20.70386 | 55.68212 | 10231 ft | 298 kts | 271° |
| 2026-04-23 16:35 | -20.70327 | 55.66001 | 9878 ft | 297 kts | 271° |
| 2026-04-23 16:35 | -20.70268 | 55.63746 | 9518 ft | 310 kts | 271° |
| 2026-04-23 16:35 | -20.70191 | 55.61416 | 9176 ft | 313 kts | 272° |
| 2026-04-23 16:36 | -20.70100 | 55.59109 | 8860 ft | 309 kts | 272° |
| 2026-04-23 16:36 | -20.70011 | 55.56853 | 8497 ft | 308 kts | 271° |
| 2026-04-23 16:36 | -20.69924 | 55.54580 | 8153 ft | 305 kts | 272° |
| 2026-04-23 16:36 | -20.69837 | 55.52326 | 7811 ft | 303 kts | 271° |
| 2026-04-23 16:37 | -20.69751 | 55.50077 | 7482 ft | 305 kts | 271° |
| 2026-04-23 16:37 | -20.69666 | 55.47819 | 7146 ft | 304 kts | 271° |
| 2026-04-23 16:37 | -20.69580 | 55.45569 | 6808 ft | 304 kts | 271° |
| 2026-04-23 16:37 | -20.69497 | 55.43321 | 6472 ft | 301 kts | 271° |
| 2026-04-23 16:38 | -20.69414 | 55.41087 | 6128 ft | 300 kts | 271° |
| 2026-04-23 16:38 | -20.69326 | 55.38865 | 5789 ft | 299 kts | 271° |
| 2026-04-23 16:38 | -20.69240 | 55.36653 | 5452 ft | 296 kts | 271° |
| 2026-04-23 16:38 | -20.69156 | 55.34478 | 5216 ft | 288 kts | 271° |
| 2026-04-23 16:39 | -20.69084 | 55.32389 | 5107 ft | 275 kts | 269° |
| 2026-04-23 16:39 | -20.69438 | 55.30464 | 4984 ft | 256 kts | 240° |
| 2026-04-23 16:39 | -20.70586 | 55.29112 | 4740 ft | 242 kts | 205° |
| 2026-04-23 16:39 | -20.72144 | 55.28568 | 4474 ft | 233 kts | 184° |
| 2026-04-23 16:40 | -20.73756 | 55.28442 | 4219 ft | 230 kts | 173° |
| 2026-04-23 16:40 | -20.75325 | 55.28650 | 4034 ft | 224 kts | 162° |
| 2026-04-23 16:40 | -20.76728 | 55.29169 | 3952 ft | 209 kts | 151° |
| 2026-04-23 16:40 | -20.77930 | 55.29924 | 3909 ft | 193 kts | 141° |
| 2026-04-23 16:41 | -20.78902 | 55.30825 | 3844 ft | 177 kts | 132° |
| 2026-04-23 16:41 | -20.79615 | 55.31811 | 3775 ft | 161 kts | 121° |
| 2026-04-23 16:41 | -20.80158 | 55.32829 | 3587 ft | 154 kts | 117° |
| 2026-04-23 16:41 | -20.80650 | 55.33835 | 3365 ft | 151 kts | 116° |
| 2026-04-23 16:42 | -20.81143 | 55.34808 | 3159 ft | 146 kts | 117° |
| 2026-04-23 16:42 | -20.81588 | 55.35757 | 2961 ft | 139 kts | 115° |
| 2026-04-23 16:42 | -20.82026 | 55.36705 | 2779 ft | 146 kts | 116° |
| 2026-04-23 16:42 | -20.82486 | 55.37683 | 2586 ft | 147 kts | 115° |
| 2026-04-23 16:43 | -20.82941 | 55.38659 | 2398 ft | 146 kts | 115° |
| 2026-04-23 16:43 | -20.83238 | 55.39297 | 2269 ft | 144 kts | 116° |
| 2026-04-23 16:43 | -20.83804 | 55.40512 | 2037 ft | 128 kts | 116° |
| 2026-04-23 16:43 | -20.84061 | 55.41061 | 1930 ft | 121 kts | 116° |
| 2026-04-23 16:44 | -20.84427 | 55.41846 | 1773 ft | 117 kts | 116° |
| 2026-04-23 16:44 | -20.84910 | 55.42881 | 1586 ft | 118 kts | 116° |
| 2026-04-23 16:44 | -20.85158 | 55.43413 | 1465 ft | 118 kts | 116° |
| 2026-04-23 16:44 | -20.85521 | 55.44195 | 1319 ft | 119 kts | 116° |
| 2026-04-23 16:45 | -20.85904 | 55.45019 | 1199 ft | 133 kts | 116° |
| 2026-04-23 16:45 | -20.86290 | 55.45887 | 1008 ft | 125 kts | 115° |
| 2026-04-23 16:45 | -20.86655 | 55.46736 | 821 ft | 129 kts | 115° |
| 2026-04-23 16:45 | -20.87067 | 55.47617 | 713 ft | 134 kts | 118° |
| 2026-04-23 16:46 | -20.87499 | 55.48493 | 527 ft | 130 kts | 116° |
| 2026-04-23 16:46 | -20.87889 | 55.49332 | 316 ft | 121 kts | 115° |
| 2026-04-23 16:46 | -20.88275 | 55.50121 | 165 ft | 117 kts | 114° |
| 2026-04-23 16:46 | -20.88630 | 55.50874 | 55 ft | 111 kts | 117° |
| 2026-04-23 16:47 | -20.88927 | 55.51502 | 64 ft | 79 kts | 116° |
| 2026-04-23 16:47 | -20.89135 | 55.51945 | 64 ft | 54 kts | 117° |
| 2026-04-23 16:47 | -20.89265 | 55.52207 | 67 ft | 23 kts | 135° |
| 2026-04-23 16:47 | -20.89342 | 55.52206 | 88 ft | 6 kts | 206° |
| 2026-04-23 16:48 | -20.89388 | 55.52179 | 91 ft | 9 kts | 213° |
| 2026-04-23 16:48 | -20.89411 | 55.52134 | 97 ft | 7 kts | 264° |
| 2026-04-23 16:48 | -20.89381 | 55.52071 | 94 ft | 13 kts | 298° |
| 2026-04-23 16:48 | -20.89330 | 55.51964 | 96 ft | 19 kts | 295° |
| 2026-04-23 16:49 | -20.89267 | 55.51831 | 92 ft | 17 kts | 296° |
| 2026-04-23 16:49 | -20.89212 | 55.51713 | 91 ft | 19 kts | 296° |
| 2026-04-23 16:49 | -20.89152 | 55.51584 | 91 ft | 15 kts | 296° |
| 2026-04-23 16:49 | -20.89117 | 55.51511 | 89 ft | 15 kts | 297° |
| 2026-04-23 16:50 | -20.89062 | 55.51393 | 86 ft | 20 kts | 296° |
| 2026-04-23 16:50 | -20.89008 | 55.51267 | 86 ft | 12 kts | 279° |
| 2026-04-23 16:50 | -20.89011 | 55.51256 | 86 ft | 2 kts | 245° |
| 2026-04-23 16:50 | -20.89051 | 55.51247 | 86 ft | 12 kts | 201° |
| 2026-04-23 16:51 | -20.89071 | 55.51236 | 86 ft | 5 kts | 206° |
| 2026-04-23 16:51 | -20.89079 | 55.51232 | 85 ft | 0 kts | 206° |